createdAt,value
2022-09-01T00:00:50.872Z,1.00
2022-09-01T00:05:55.130Z,1.20
2022-09-01T00:10:57.259Z,1.25
2022-09-01T00:16:00.928Z,1.02
2022-09-01T00:21:03.061Z,0.90
2022-09-01T00:26:06.161Z,0.88
2022-09-01T00:31:10.951Z,1.00
2022-09-01T00:36:13.175Z,0.90
2022-09-01T00:41:19.054Z,1.02
2022-09-01T00:46:24.309Z,1.10
2022-09-01T00:51:33.063Z,1.17
2022-09-01T00:56:39.145Z,1.10
2022-09-01T01:01:41.469Z,1.08
2022-09-01T01:06:49.688Z,1.17
2022-09-01T01:11:52.496Z,1.00
2022-09-01T01:16:55.288Z,1.10
2022-09-01T01:22:16.502Z,1.13
2022-09-01T01:27:21.994Z,1.13
2022-09-01T01:32:26.448Z,1.08
2022-09-01T01:37:29.777Z,1.00
2022-09-01T01:42:33.348Z,0.90
2022-09-01T01:47:35.361Z,1.20
2022-09-01T01:52:37.671Z,1.10
2022-09-01T01:57:41.671Z,1.25
2022-09-01T02:02:43.833Z,1.02
2022-09-01T02:07:45.945Z,1.23
2022-09-01T02:12:48.950Z,1.00
2022-09-01T02:17:51.412Z,1.17
2022-09-01T02:22:55.341Z,1.02
2022-09-01T02:27:57.382Z,1.40
2022-09-01T02:33:00.299Z,1.30
2022-09-01T02:38:02.535Z,1.20
2022-09-01T02:43:05.904Z,1.27
2022-09-01T02:48:09.702Z,1.30
2022-09-01T02:53:15.358Z,1.30
2022-09-01T02:58:20.054Z,1.38
2022-09-01T03:03:27.916Z,1.45
2022-09-01T03:08:34.290Z,1.33
2022-09-01T03:13:38.923Z,1.40
2022-09-01T03:18:42.753Z,1.30
2022-09-01T03:23:46.551Z,1.40
2022-09-01T03:28:51.443Z,1.65
2022-09-01T03:33:56.898Z,1.40
2022-09-01T03:39:04.160Z,1.47
2022-09-01T03:44:10.596Z,1.23
2022-09-01T03:49:15.356Z,1.50
2022-09-01T03:54:17.814Z,1.38
2022-09-01T03:59:22.656Z,1.60
2022-09-01T04:04:25.686Z,1.33
2022-09-01T04:09:27.760Z,1.80
2022-09-01T04:14:30.514Z,1.50
2022-09-01T04:19:36.703Z,1.60
2022-09-01T04:24:45.059Z,1.58
2022-09-01T04:29:48.451Z,1.95
2022-09-01T04:34:50.869Z,1.83
2022-09-01T04:39:56.964Z,1.63
2022-09-01T04:45:02.158Z,1.65
2022-09-01T04:50:17.278Z,1.70
2022-09-01T04:55:43.581Z,1.45
2022-09-01T05:00:48.237Z,1.60
2022-09-01T05:05:53.969Z,1.50
2022-09-01T05:10:56.781Z,2.10
2022-09-01T05:21:29.586Z,1.60
2022-09-01T05:26:34.540Z,1.70
2022-09-01T05:31:37.616Z,1.40
2022-09-01T05:36:46.027Z,1.63
2022-09-01T05:41:49.757Z,1.83
2022-09-01T05:46:53.889Z,1.75
2022-09-01T05:51:59.040Z,1.63
2022-09-01T05:57:30.354Z,2.10
2022-09-01T06:02:27.823Z,1.63
2022-09-01T06:07:38.007Z,2.10
2022-09-01T06:12:43.392Z,2.22
2022-09-01T06:17:48.957Z,1.70
2022-09-01T06:22:52.687Z,1.95
2022-09-01T06:27:56.104Z,1.70
2022-09-01T06:33:01.153Z,1.95
2022-09-01T06:38:04.771Z,2.25
2022-09-01T06:43:16.090Z,2.13
2022-09-01T06:48:23.563Z,2.42
2022-09-01T06:53:32.826Z,2.00
2022-09-01T06:58:38.220Z,2.35
2022-09-01T07:03:40.365Z,2.40
2022-09-01T07:14:19.182Z,2.33
2022-09-01T07:19:21.767Z,2.38
2022-09-01T07:24:31.803Z,2.13
2022-09-01T07:29:57.095Z,2.72
2022-09-01T07:42:30.798Z,2.55
2022-09-01T07:46:40.783Z,2.47
2022-09-01T07:51:51.194Z,2.58
2022-09-01T07:56:55.437Z,2.40
2022-09-01T08:01:58.266Z,2.20
2022-09-01T08:07:01.098Z,2.60
2022-09-01T08:12:07.435Z,2.60
2022-09-01T08:17:17.712Z,2.50
2022-09-01T08:22:39.612Z,2.42
2022-09-01T08:27:59.806Z,2.75
2022-09-01T08:33:17.815Z,2.08
2022-09-01T08:38:21.847Z,2.28
2022-09-01T08:43:45.816Z,2.40
2022-09-01T08:55:11.457Z,2.17
2022-09-01T09:00:16.655Z,2.08
2022-09-01T09:05:41.148Z,2.03
2022-09-01T09:10:52.157Z,1.98
2022-09-01T09:16:07.805Z,2.97
2022-09-01T09:21:35.369Z,1.80
2022-09-01T09:26:44.901Z,2.10
2022-09-01T09:31:49.939Z,2.08
2022-09-01T09:36:55.358Z,2.10
2022-09-01T09:42:12.274Z,1.80
2022-09-01T09:47:45.810Z,1.88
2022-09-01T09:52:49.395Z,1.90
2022-09-01T09:57:56.170Z,1.25
2022-09-01T10:03:07.887Z,1.67
2022-09-01T10:08:27.178Z,1.30
2022-09-01T10:13:33.111Z,1.83
2022-09-01T10:18:40.257Z,1.17
2022-09-01T10:23:43.198Z,1.23
2022-09-01T10:28:56.328Z,1.08
2022-09-01T10:34:01.545Z,1.10
2022-09-01T10:39:08.747Z,1.15
2022-09-01T10:44:20.075Z,1.05
2022-09-01T10:49:28.113Z,1.08
2022-09-01T10:54:51.313Z,1.02
2022-09-01T10:59:57.801Z,1.00
2022-09-01T11:05:00.666Z,1.00
2022-09-01T11:10:43.820Z,1.10
2022-09-01T11:15:46.246Z,0.93
2022-09-01T11:20:48.854Z,0.90
2022-09-01T11:31:26.656Z,0.90
2022-09-01T11:36:47.367Z,0.80
2022-09-01T11:42:32.299Z,0.90
2022-09-01T11:47:46.703Z,0.80
2022-09-01T11:53:21.503Z,0.73
2022-09-01T11:58:27.643Z,0.85
2022-09-01T12:03:30.505Z,0.73
2022-09-01T12:08:36.382Z,0.70
2022-09-01T12:13:40.706Z,0.75
2022-09-01T12:18:51.382Z,0.88
2022-09-01T12:28:56.923Z,0.90
2022-09-01T12:33:59.201Z,0.60
2022-09-01T12:39:24.341Z,0.52
2022-09-01T12:44:32.491Z,0.70
2022-09-01T12:49:45.217Z,0.60
2022-09-01T12:54:58.945Z,0.80
2022-09-01T13:00:20.635Z,0.60
2022-09-01T13:05:40.963Z,0.50
2022-09-01T13:10:47.420Z,0.80
2022-09-01T13:15:55.455Z,0.77
2022-09-01T13:20:58.926Z,0.70
2022-09-01T13:26:01.269Z,0.52
2022-09-01T13:36:45.319Z,0.60
2022-09-01T13:41:49.656Z,0.30
2022-09-01T13:46:59.475Z,0.43
2022-09-01T13:52:01.905Z,0.68
2022-09-01T13:57:04.461Z,0.50
2022-09-01T14:02:06.607Z,0.40
2022-09-01T14:07:08.634Z,0.32
2022-09-01T14:12:10.972Z,0.43
2022-09-01T14:17:12.988Z,0.45
2022-09-01T14:22:15.048Z,0.40
2022-09-01T14:27:18.245Z,0.30
2022-09-01T14:32:26.723Z,0.45
2022-09-01T14:37:31.826Z,0.40
2022-09-01T14:42:34.527Z,0.30
2022-09-01T14:47:39.168Z,0.45
2022-09-01T14:52:42.729Z,0.55
2022-09-01T14:57:44.823Z,0.50
2022-09-01T15:02:47.233Z,0.40
2022-09-01T15:07:49.793Z,0.50
2022-09-01T15:12:59.505Z,0.65
2022-09-01T15:18:02.140Z,0.60
2022-09-01T15:23:04.572Z,0.40
2022-09-01T15:28:06.730Z,0.40
2022-09-01T15:33:13.338Z,0.40
2022-09-01T15:38:17.748Z,0.30
2022-09-01T15:43:21.338Z,0.70
2022-09-01T15:48:24.156Z,0.45
2022-09-01T15:53:26.180Z,0.65
2022-09-01T15:58:34.360Z,0.50
2022-09-01T16:03:46.815Z,0.50
2022-09-01T16:08:50.460Z,0.70
2022-09-01T16:13:53.753Z,0.65
2022-09-01T16:19:02.693Z,0.45
2022-09-01T16:24:10.512Z,0.60
2022-09-01T16:29:20.611Z,0.90
2022-09-01T16:34:26.278Z,0.68
2022-09-01T16:39:51.133Z,0.70
2022-09-01T16:45:48.556Z,0.82
2022-09-01T16:51:02.785Z,1.02
2022-09-01T16:56:11.864Z,1.00
2022-09-01T17:01:31.424Z,1.17
2022-09-01T17:06:45.387Z,0.93
2022-09-01T17:11:53.711Z,0.93
2022-09-01T17:17:08.588Z,0.70
2022-09-01T17:22:12.851Z,1.20
2022-09-01T17:27:28.193Z,0.90
2022-09-01T17:33:04.915Z,1.60
2022-09-01T17:38:22.321Z,0.90
2022-09-01T17:43:36.782Z,0.90
2022-09-01T17:49:02.592Z,1.00
2022-09-01T17:54:37.505Z,0.90
2022-09-01T17:59:55.356Z,0.90
2022-09-01T18:05:14.503Z,1.25
2022-09-01T18:10:58.331Z,1.20
2022-09-01T18:16:05.297Z,1.20
2022-09-01T18:21:56.256Z,0.90
2022-09-01T18:26:58.324Z,1.35
2022-09-01T18:32:29.563Z,1.30
2022-09-01T18:38:16.355Z,1.23
2022-09-01T18:43:32.902Z,1.50
2022-09-01T18:48:56.761Z,1.75
2022-09-01T18:54:09.153Z,1.45
2022-09-01T18:59:36.588Z,1.60
2022-09-01T19:04:42.159Z,1.58
2022-09-01T19:09:55.536Z,1.70
2022-09-01T19:15:12.265Z,1.60
2022-09-01T19:20:24.150Z,1.70
2022-09-01T19:25:36.746Z,1.50
2022-09-01T19:31:05.397Z,1.65
2022-09-01T19:36:11.884Z,1.77
2022-09-01T19:41:35.254Z,1.88
2022-09-01T19:46:43.471Z,1.40
2022-09-01T19:51:56.867Z,1.65
2022-09-01T19:57:17.934Z,1.40
2022-09-01T20:02:34.736Z,1.50
2022-09-01T20:07:44.427Z,1.50
2022-09-01T20:13:18.742Z,1.40
2022-09-01T20:18:36.263Z,1.40
2022-09-01T20:24:09.413Z,1.20
2022-09-01T20:29:24.188Z,1.10
2022-09-01T20:34:45.865Z,1.30
2022-09-01T20:40:01.601Z,1.10
2022-09-01T20:45:23.494Z,1.50
2022-09-01T20:50:44.967Z,1.25
2022-09-01T20:55:59.252Z,1.60
2022-09-01T21:01:04.384Z,1.63
2022-09-01T21:06:50.751Z,1.50
2022-09-01T21:12:21.602Z,1.48
2022-09-01T21:17:48.675Z,1.48
2022-09-01T21:22:50.917Z,1.30
2022-09-01T21:27:56.115Z,1.20
2022-09-01T21:32:59.074Z,1.30
2022-09-01T21:38:01.141Z,0.93
2022-09-01T21:43:08.100Z,1.15
2022-09-01T21:48:10.530Z,1.27
2022-09-01T21:53:13.882Z,0.90
2022-09-01T21:58:16.107Z,1.20
2022-09-01T22:03:18.332Z,1.05
2022-09-01T22:08:20.377Z,1.00
2022-09-01T22:13:24.646Z,1.10
2022-09-01T22:18:26.953Z,1.00
2022-09-01T22:23:29.211Z,1.48
2022-09-01T22:28:31.812Z,1.05
2022-09-01T22:33:33.931Z,0.90
2022-09-01T22:38:36.100Z,1.00
2022-09-01T22:43:38.099Z,1.10
2022-09-01T22:48:40.591Z,1.02
2022-09-01T22:53:44.926Z,1.00
2022-09-01T22:58:48.875Z,1.10
2022-09-01T23:03:52.097Z,1.00
2022-09-01T23:08:57.107Z,1.00
2022-09-01T23:13:59.208Z,1.10
2022-09-01T23:19:01.887Z,1.15
2022-09-01T23:24:05.002Z,1.08
2022-09-01T23:29:07.423Z,1.15
2022-09-01T23:34:09.616Z,1.10
2022-09-01T23:39:11.655Z,1.23
2022-09-01T23:44:14.355Z,1.55
2022-09-01T23:49:18.071Z,1.30
2022-09-01T23:54:20.567Z,1.10
2022-09-01T23:59:27.400Z,1.33
